首页
METAR-TAF:

METAR-TAF

机场 :

河內, 越南

內排國際機場

纬度: 21-01N, 经度: 105-48E, 海拔: 6米

当前天气观测

该预报发布于20分钟前的03:00 UTC
静风
温度 20°C
湿度 88%
气压 1017 hPa
能見度: 3100
多云层高于1700英尺
轻雾

METAR: VVNB 200300Z 00000KT 3100 BR BKN017 20/18 Q1017 NOSIG

时间: 10:20 (03:20 UTC)

预报

该预报发布于4小时和20分钟前的23:00 UTC
预报有效从20日的 00点(UTC)到 20日的 24点(UTC)
风速6节,风向东转东北
能見度: 3500
散云层高于2000英尺
多云层高于5000英尺
轻雾
成为
从 20日的 01点(UTC)到 20日的 03点(UTC)
能見度: 6000
成为
从 20日的 14点(UTC)到 20日的 16点(UTC)
能見度: 4000
轻雾
短暂存在
从 20日的 20点(UTC)到 20日的 24点(UTC)
能見度: 1600
散云层高于500英尺
多云层高于1000英尺
毛毛雨, 轻雾

TAF: VVNB 192300Z 2000/2024 06006KT 3500 BR SCT020 BKN050 BECMG 2001/2003 6000 NSW BECMG 2014/2016 4000 BR TEMPO 2020/2024 1600 DZ BR SCT005 BKN010

超过4000个机场的气象观测和天气预报(METAR&TAF报告)。

可查询的气象台以黄色和红色小点在地图上表示。

将鼠标移到小点上方,可查看气象台名称。

然后点击查看天气观测和预报。

如需切换地图:点击带黑十字的绿色按钮放大地图;点击带横线的绿色按钮缩小地图;或者点击绿色箭头查看邻近地区的地图。


METAR-TAF: